createdAt,value
2022-10-12T00:02:08.175Z,8.60
2022-10-12T00:04:35.203Z,17.40
2022-10-12T00:07:02.091Z,10.85
2022-10-12T00:09:28.992Z,7.05
2022-10-12T00:11:55.839Z,10.30
2022-10-12T00:14:22.846Z,13.02
2022-10-12T00:16:49.754Z,10.40
2022-10-12T00:19:16.651Z,15.20
2022-10-12T00:21:43.549Z,11.55
2022-10-12T00:24:10.749Z,7.18
2022-10-12T00:26:37.707Z,9.45
2022-10-12T00:29:04.917Z,7.32
2022-10-12T00:31:32.514Z,9.80
2022-10-12T00:34:04.044Z,8.23
2022-10-12T00:36:34.131Z,11.50
2022-10-12T00:39:02.007Z,11.35
2022-10-12T00:41:32.204Z,13.05
2022-10-12T00:43:59.448Z,9.30
2022-10-12T00:46:46.146Z,9.85
2022-10-12T00:49:17.740Z,13.25
2022-10-12T00:51:48.906Z,7.32
2022-10-12T00:54:26.931Z,10.23
2022-10-12T00:56:56.892Z,10.07
2022-10-12T00:59:31.787Z,12.40
2022-10-12T01:01:58.824Z,8.15
2022-10-12T01:04:26.307Z,8.40
2022-10-12T01:06:53.434Z,5.75
2022-10-12T01:09:21.633Z,8.23
2022-10-12T01:11:49.156Z,9.77
2022-10-12T01:14:17.372Z,7.43
2022-10-12T01:16:52.275Z,11.07
2022-10-12T01:19:28.469Z,10.13
2022-10-12T01:22:05.220Z,8.88
2022-10-12T01:24:39.152Z,9.63
2022-10-12T01:27:32.433Z,12.10
2022-10-12T01:30:26.884Z,10.80
2022-10-12T01:33:10.384Z,13.00
2022-10-12T01:35:54.128Z,12.07
2022-10-12T01:38:43.138Z,9.63
2022-10-12T01:41:25.726Z,6.05
2022-10-12T01:43:53.201Z,8.98
2022-10-12T01:46:20.087Z,12.00
2022-10-12T01:48:53.198Z,6.53
2022-10-12T01:51:43.225Z,6.82
2022-10-12T01:54:25.052Z,7.18
2022-10-12T01:57:04.066Z,6.25
2022-10-12T01:59:49.236Z,8.52
2022-10-12T02:02:22.178Z,7.93
2022-10-12T02:04:57.571Z,10.73
2022-10-12T02:07:42.696Z,11.45
2022-10-12T02:10:18.346Z,7.22
2022-10-12T02:12:48.127Z,10.55
2022-10-12T02:15:17.215Z,8.63
2022-10-12T02:17:48.246Z,7.65
2022-10-12T02:20:18.510Z,5.70
2022-10-12T02:22:48.926Z,7.60
2022-10-12T02:25:20.335Z,6.57
2022-10-12T02:27:54.972Z,11.00
2022-10-12T02:30:22.342Z,7.47
2022-10-12T02:33:14.764Z,6.07
2022-10-12T02:36:09.889Z,8.27
2022-10-12T02:41:14.461Z,7.90
2022-10-12T02:43:53.507Z,8.00
2022-10-12T02:46:23.920Z,9.60
2022-10-12T02:48:52.166Z,6.80
2022-10-12T02:51:19.795Z,8.55
2022-10-12T02:53:47.177Z,11.65
2022-10-12T02:56:16.308Z,14.10
2022-10-12T02:58:45.104Z,4.10
2022-10-12T03:01:13.081Z,9.45
2022-10-12T03:03:40.810Z,6.60
2022-10-12T03:06:08.091Z,11.73
2022-10-12T03:08:35.536Z,6.38
2022-10-12T03:11:08.234Z,6.20
2022-10-12T03:13:35.527Z,6.15
2022-10-12T03:16:10.375Z,8.23
2022-10-12T03:18:38.621Z,10.00
2022-10-12T03:21:05.722Z,10.02
2022-10-12T03:23:32.682Z,5.97
2022-10-12T03:25:59.607Z,8.55
2022-10-12T03:28:26.686Z,5.20
2022-10-12T03:30:53.880Z,7.95
2022-10-12T03:33:21.301Z,8.40
2022-10-12T03:35:48.385Z,9.05
2022-10-12T03:38:17.009Z,9.02
2022-10-12T03:40:45.242Z,5.55
2022-10-12T03:43:12.249Z,7.63
2022-10-12T03:45:39.183Z,12.15
2022-10-12T03:48:07.277Z,6.30
2022-10-12T03:50:35.451Z,7.85
2022-10-12T03:53:03.838Z,5.80
2022-10-12T03:55:31.041Z,16.38
2022-10-12T03:57:58.111Z,6.60
2022-10-12T04:00:25.384Z,5.55
2022-10-12T04:02:52.300Z,7.07
2022-10-12T04:05:19.158Z,8.63
2022-10-12T04:07:46.184Z,6.82
2022-10-12T04:10:13.216Z,7.10
2022-10-12T04:12:40.167Z,9.02
2022-10-12T04:15:07.927Z,8.27
2022-10-12T04:17:34.932Z,5.47
2022-10-12T04:20:01.867Z,7.07
2022-10-12T04:22:28.755Z,7.72
2022-10-12T04:24:55.727Z,7.65
2022-10-12T04:27:22.634Z,8.25
2022-10-12T04:29:49.536Z,5.55
2022-10-12T04:32:16.591Z,8.20
2022-10-12T04:34:43.501Z,6.05
2022-10-12T04:37:10.412Z,8.90
2022-10-12T04:39:37.526Z,7.47
2022-10-12T04:42:04.639Z,6.57
2022-10-12T04:44:32.488Z,10.20
2022-10-12T04:47:00.725Z,7.95
2022-10-12T04:49:27.637Z,6.70
2022-10-12T04:51:54.553Z,9.05
2022-10-12T04:54:21.482Z,5.70
2022-10-12T04:56:48.449Z,13.15
2022-10-12T04:59:15.653Z,12.00
2022-10-12T05:01:43.203Z,7.72
2022-10-12T05:04:10.269Z,9.35
2022-10-12T05:06:37.186Z,9.90
2022-10-12T05:09:04.203Z,9.73
2022-10-12T05:11:31.113Z,8.50
2022-10-12T05:13:58.225Z,13.60
2022-10-12T05:16:25.272Z,12.02
2022-10-12T05:18:52.479Z,12.07
2022-10-12T05:21:19.372Z,12.15
2022-10-12T05:23:51.779Z,13.13
2022-10-12T05:26:19.535Z,13.57
2022-10-12T05:28:46.521Z,7.07
2022-10-12T05:31:13.469Z,11.23
2022-10-12T05:33:40.381Z,9.10
2022-10-12T05:36:07.688Z,13.63
2022-10-12T05:38:34.583Z,20.60
2022-10-12T05:41:01.494Z,12.43
2022-10-12T05:43:28.811Z,12.65
2022-10-12T05:45:55.745Z,14.13
2022-10-12T05:48:23.036Z,14.00
2022-10-12T05:50:53.737Z,9.07
2022-10-12T05:53:21.853Z,13.48
2022-10-12T05:56:02.086Z,11.30
2022-10-12T05:58:30.510Z,13.35
2022-10-12T06:01:06.176Z,9.38
2022-10-12T06:03:35.130Z,10.23
2022-10-12T06:06:03.583Z,8.52
2022-10-12T06:08:31.859Z,7.78
2022-10-12T06:10:59.179Z,8.10
2022-10-12T06:13:26.509Z,10.95
2022-10-12T06:15:53.446Z,10.55
2022-10-12T06:18:20.921Z,8.95
2022-10-12T06:20:49.246Z,6.55
2022-10-12T06:23:16.319Z,8.00
2022-10-12T06:25:43.220Z,9.38
2022-10-12T06:28:10.436Z,9.52
2022-10-12T06:30:37.408Z,12.25
2022-10-12T06:33:04.751Z,8.43
2022-10-12T06:35:31.759Z,11.35
2022-10-12T06:37:58.860Z,9.43
2022-10-12T06:40:25.887Z,8.48
2022-10-12T06:42:58.294Z,10.30
2022-10-12T06:45:25.802Z,8.98
2022-10-12T06:47:55.741Z,7.53
2022-10-12T06:50:22.678Z,7.75
2022-10-12T06:52:49.591Z,8.43
2022-10-12T06:55:16.573Z,9.30
2022-10-12T06:57:43.496Z,9.88
2022-10-12T07:00:11.428Z,11.85
2022-10-12T07:02:38.562Z,9.80
2022-10-12T07:05:06.569Z,8.85
2022-10-12T07:07:35.799Z,8.10
2022-10-12T07:10:04.673Z,9.93
2022-10-12T07:12:31.548Z,6.47
2022-10-12T07:14:59.592Z,9.30
2022-10-12T07:17:26.512Z,8.57
2022-10-12T07:19:53.428Z,9.07
2022-10-12T07:26:08.437Z,11.02
2022-10-12T07:32:22.725Z,11.25
2022-10-12T07:34:49.681Z,7.63
2022-10-12T07:37:16.714Z,9.73
2022-10-12T07:39:43.803Z,10.18
2022-10-12T07:42:12.619Z,9.13
2022-10-12T07:44:42.404Z,9.13
2022-10-12T07:47:09.516Z,6.88
2022-10-12T07:49:36.441Z,6.82
2022-10-12T07:52:03.378Z,6.53
2022-10-12T07:54:30.875Z,12.02
2022-10-12T07:56:59.101Z,12.98
2022-10-12T07:59:26.195Z,12.55
2022-10-12T08:01:53.193Z,7.05
2022-10-12T08:04:20.085Z,7.45
2022-10-12T08:06:46.962Z,9.43
2022-10-12T08:09:13.861Z,6.07
2022-10-12T08:11:41.284Z,6.93
2022-10-12T08:14:16.246Z,5.25
2022-10-12T08:16:44.391Z,6.60
2022-10-12T08:19:11.622Z,7.50
2022-10-12T08:21:38.746Z,11.27
2022-10-12T08:24:05.954Z,7.82
2022-10-12T08:26:33.375Z,10.20
2022-10-12T08:29:02.515Z,12.13
2022-10-12T08:31:29.462Z,7.57
2022-10-12T08:33:58.562Z,9.13
2022-10-12T08:36:27.893Z,7.78
2022-10-12T08:38:55.762Z,9.50
2022-10-12T08:41:41.297Z,7.25
2022-10-12T08:44:29.769Z,9.27
2022-10-12T08:47:25.711Z,8.48
2022-10-12T08:49:54.069Z,8.50
2022-10-12T08:52:32.337Z,8.43
2022-10-12T08:55:06.930Z,5.40
2022-10-12T09:04:18.127Z,5.18
2022-10-12T09:06:50.047Z,7.60
2022-10-12T09:09:37.970Z,4.10
2022-10-12T09:12:14.219Z,8.95
2022-10-12T09:14:42.764Z,6.90
2022-10-12T09:17:27.670Z,4.72
2022-10-12T09:20:06.630Z,5.82
2022-10-12T09:22:35.380Z,5.30
2022-10-12T09:25:03.561Z,8.10
2022-10-12T09:27:32.055Z,7.78
2022-10-12T09:30:03.522Z,5.38
2022-10-12T09:32:47.518Z,6.22
2022-10-12T09:35:15.067Z,8.75
2022-10-12T09:37:42.177Z,5.32
2022-10-12T09:40:23.350Z,5.93
2022-10-12T09:42:51.052Z,7.45
2022-10-12T09:45:20.121Z,7.72
2022-10-12T09:48:15.988Z,6.20
2022-10-12T09:50:53.541Z,5.97
2022-10-12T09:53:28.860Z,6.15
2022-10-12T09:56:16.056Z,7.47
2022-10-12T09:58:58.030Z,6.13
2022-10-12T10:01:27.670Z,4.78
2022-10-12T10:04:13.427Z,7.13
2022-10-12T10:06:45.999Z,4.30
2022-10-12T10:09:33.894Z,7.43
2022-10-12T10:12:18.967Z,5.50
2022-10-12T10:14:46.073Z,4.45
2022-10-12T10:17:29.288Z,6.00
2022-10-12T10:19:57.991Z,5.15
2022-10-12T10:22:25.541Z,6.15
2022-10-12T10:25:00.452Z,5.43
2022-10-12T10:27:32.799Z,7.10
2022-10-12T10:30:29.507Z,3.60
2022-10-12T10:33:16.871Z,9.45
2022-10-12T10:36:00.811Z,4.97
2022-10-12T10:38:29.195Z,4.93
2022-10-12T10:40:57.697Z,5.63
2022-10-12T10:43:30.642Z,2.90
2022-10-12T10:46:03.481Z,6.82
2022-10-12T10:48:51.446Z,4.93
2022-10-12T10:51:18.435Z,2.95
2022-10-12T10:53:51.852Z,4.70
2022-10-12T10:56:29.570Z,6.03
2022-10-12T10:58:59.884Z,3.80
2022-10-12T11:01:40.288Z,4.65
2022-10-12T11:04:16.717Z,3.80
2022-10-12T11:06:52.109Z,4.18
2022-10-12T11:09:31.822Z,4.63
2022-10-12T11:12:09.571Z,4.65
2022-10-12T11:14:52.094Z,3.33
2022-10-12T11:17:42.698Z,3.03
2022-10-12T11:20:19.993Z,3.70
2022-10-12T11:22:54.816Z,4.55
2022-10-12T11:25:24.732Z,4.05
2022-10-12T11:27:53.962Z,3.55
2022-10-12T11:30:25.248Z,3.47
2022-10-12T11:33:03.128Z,4.65
2022-10-12T11:35:35.065Z,4.30
2022-10-12T11:38:15.379Z,3.03
2022-10-12T11:41:19.044Z,3.63
2022-10-12T11:43:50.359Z,7.50
2022-10-12T11:46:21.622Z,5.45
2022-10-12T11:48:55.137Z,4.15
2022-10-12T11:51:22.056Z,3.03
2022-10-12T11:54:18.288Z,4.30
2022-10-12T11:56:50.706Z,3.72
2022-10-12T11:59:31.068Z,3.25
2022-10-12T12:02:09.739Z,4.05
2022-10-12T12:04:42.775Z,6.60
2022-10-12T12:07:38.226Z,3.40
2022-10-12T12:10:30.622Z,5.18
2022-10-12T12:13:15.391Z,4.18
2022-10-12T12:16:03.987Z,4.82
2022-10-12T12:18:34.061Z,4.63
2022-10-12T12:21:07.605Z,6.78
2022-10-12T12:23:50.332Z,3.63
2022-10-12T12:26:19.459Z,4.72
2022-10-12T12:28:52.711Z,5.57
2022-10-12T12:31:22.375Z,3.70
2022-10-12T12:34:00.533Z,5.43
2022-10-12T12:36:36.953Z,4.45
2022-10-12T12:39:07.567Z,4.85
2022-10-12T12:42:09.665Z,5.88
2022-10-12T12:44:43.989Z,6.25
2022-10-12T12:50:30.121Z,3.03
2022-10-12T12:53:06.803Z,4.32
2022-10-12T12:55:58.637Z,5.57
2022-10-12T12:58:37.041Z,3.08
2022-10-12T13:01:03.971Z,4.00
2022-10-12T13:03:56.753Z,5.50
2022-10-12T13:06:29.475Z,3.70
2022-10-12T13:09:16.532Z,4.95
2022-10-12T13:11:55.687Z,5.30
2022-10-12T13:14:59.124Z,4.60
2022-10-12T13:18:18.320Z,4.55
2022-10-12T13:20:50.734Z,4.60
2022-10-12T13:23:22.575Z,3.28
2022-10-12T13:26:06.626Z,6.05
2022-10-12T13:28:38.152Z,11.57
2022-10-12T13:31:09.618Z,5.22
2022-10-12T13:34:06.488Z,7.53
2022-10-12T13:36:46.057Z,5.55
2022-10-12T13:39:19.883Z,5.57
2022-10-12T13:41:51.405Z,6.80
2022-10-12T13:44:28.321Z,6.97
2022-10-12T13:47:01.263Z,7.40
2022-10-12T13:49:30.779Z,5.13
2022-10-12T13:52:18.275Z,7.25
2022-10-12T13:54:48.904Z,4.05
2022-10-12T13:57:46.669Z,4.80
2022-10-12T14:00:16.648Z,5.85
2022-10-12T14:03:06.323Z,5.47
2022-10-12T14:05:42.491Z,11.45
2022-10-12T14:08:21.466Z,7.78
2022-10-12T14:10:49.508Z,8.32
2022-10-12T14:13:32.034Z,8.75
2022-10-12T14:16:01.108Z,5.70
2022-10-12T14:18:34.628Z,7.45
2022-10-12T14:21:31.158Z,6.75
2022-10-12T14:24:09.560Z,6.70
2022-10-12T14:26:40.899Z,8.00
2022-10-12T14:29:46.977Z,5.57
2022-10-12T14:32:13.834Z,6.43
2022-10-12T14:34:50.550Z,8.68
2022-10-12T14:37:17.479Z,7.25
2022-10-12T14:39:47.544Z,4.80
2022-10-12T14:42:20.049Z,8.20
2022-10-12T14:44:47.391Z,6.07
2022-10-12T14:47:22.535Z,6.90
2022-10-12T14:49:51.616Z,5.82
2022-10-12T14:52:31.397Z,8.48
2022-10-12T14:54:59.399Z,5.65
2022-10-12T14:57:30.181Z,4.15
2022-10-12T14:59:57.665Z,8.05
2022-10-12T15:02:30.107Z,4.25
2022-10-12T15:04:58.064Z,6.07
2022-10-12T15:07:34.019Z,3.60
2022-10-12T15:10:02.099Z,3.78
2022-10-12T15:12:32.253Z,9.32
2022-10-12T15:15:01.351Z,6.60
2022-10-12T15:17:28.331Z,10.05
2022-10-12T15:19:55.299Z,8.13
2022-10-12T15:22:26.664Z,8.77
2022-10-12T15:24:54.879Z,4.50
2022-10-12T15:27:22.140Z,4.53
2022-10-12T15:29:51.088Z,6.13
2022-10-12T15:32:18.984Z,6.47
2022-10-12T15:34:46.376Z,6.38
2022-10-12T15:37:13.494Z,6.45
2022-10-12T15:39:41.751Z,6.78
2022-10-12T15:42:09.772Z,5.50
2022-10-12T15:44:41.279Z,6.85
2022-10-12T15:47:10.523Z,7.03
2022-10-12T15:49:37.956Z,16.05
2022-10-12T15:52:09.600Z,13.27
2022-10-12T15:54:36.511Z,6.80
2022-10-12T15:57:03.498Z,7.35
2022-10-12T15:59:30.474Z,9.70
2022-10-12T16:01:58.538Z,5.35
2022-10-12T16:04:25.426Z,7.03
2022-10-12T16:06:52.311Z,8.07
2022-10-12T16:09:19.188Z,7.82
2022-10-12T16:11:46.136Z,9.95
2022-10-12T16:14:14.871Z,8.98
2022-10-12T16:16:41.767Z,9.32
2022-10-12T16:19:08.641Z,7.93
2022-10-12T16:21:35.568Z,10.45
2022-10-12T16:24:02.574Z,7.10
2022-10-12T16:26:29.567Z,10.98
2022-10-12T16:28:56.522Z,7.65
2022-10-12T16:31:23.545Z,7.45
2022-10-12T16:33:50.477Z,8.10
2022-10-12T16:36:18.067Z,8.13
2022-10-12T16:38:45.554Z,5.38
2022-10-12T16:41:14.496Z,11.25
2022-10-12T16:43:41.440Z,8.45
2022-10-12T16:46:08.508Z,8.57
2022-10-12T16:48:36.124Z,5.05
2022-10-12T16:51:11.712Z,6.53
2022-10-12T16:57:31.939Z,8.32
2022-10-12T16:59:59.037Z,7.47
2022-10-12T17:02:27.500Z,7.75
2022-10-12T17:04:54.436Z,6.35
2022-10-12T17:07:21.403Z,8.40
2022-10-12T17:09:48.287Z,8.90
2022-10-12T17:12:15.569Z,9.52
2022-10-12T17:14:42.632Z,6.90
2022-10-12T17:17:09.645Z,6.57
2022-10-12T17:19:39.894Z,11.43
2022-10-12T17:22:09.572Z,8.13
2022-10-12T17:28:23.746Z,13.07
2022-10-12T17:30:50.692Z,7.85
2022-10-12T17:33:17.605Z,7.85
2022-10-12T17:35:44.535Z,10.02
2022-10-12T17:38:11.470Z,7.60
2022-10-12T17:40:39.711Z,9.77
2022-10-12T17:43:06.653Z,9.52
2022-10-12T17:45:33.753Z,8.45
2022-10-12T17:51:42.242Z,9.43
2022-10-12T17:54:10.153Z,9.13
2022-10-12T17:56:37.160Z,10.32
2022-10-12T17:59:05.179Z,10.20
2022-10-12T18:01:32.807Z,9.27
2022-10-12T18:04:04.767Z,11.85
2022-10-12T18:06:32.927Z,10.32
2022-10-12T18:09:02.253Z,9.45
2022-10-12T18:11:29.305Z,15.18
2022-10-12T18:13:57.295Z,10.50
2022-10-12T18:16:30.173Z,10.90
2022-10-12T18:18:59.643Z,11.82
2022-10-12T18:21:28.527Z,13.55
2022-10-12T18:23:55.882Z,14.57
2022-10-12T18:26:23.135Z,10.75
2022-10-12T18:28:52.108Z,10.45
2022-10-12T18:31:24.922Z,12.88
2022-10-12T18:33:52.898Z,13.15
2022-10-12T18:36:20.870Z,12.27
2022-10-12T18:38:47.887Z,11.52
2022-10-12T18:41:26.919Z,17.92
2022-10-12T18:43:58.937Z,10.73
2022-10-12T18:46:28.206Z,12.68
2022-10-12T18:48:55.412Z,14.48
2022-10-12T18:51:34.155Z,14.88
2022-10-12T18:54:02.230Z,15.95
2022-10-12T18:56:31.172Z,12.90
2022-10-12T18:58:59.878Z,15.45
2022-10-12T19:01:29.221Z,15.50
2022-10-12T19:03:58.055Z,29.98
2022-10-12T19:06:31.249Z,21.85
2022-10-12T19:08:59.258Z,31.55
2022-10-12T19:11:27.544Z,24.45
2022-10-12T19:14:00.284Z,21.88
2022-10-12T19:16:27.622Z,22.70
2022-10-12T19:19:04.171Z,15.18
2022-10-12T19:21:31.190Z,19.00
2022-10-12T19:23:58.327Z,19.13
2022-10-12T19:26:27.259Z,17.52
2022-10-12T19:28:56.117Z,17.13
2022-10-12T19:31:27.240Z,15.40
2022-10-12T19:34:01.594Z,21.50
2022-10-12T19:36:29.568Z,17.65
2022-10-12T19:38:57.807Z,16.60
2022-10-12T19:41:26.319Z,18.83
2022-10-12T19:43:53.609Z,18.60
2022-10-12T19:46:20.979Z,17.23
2022-10-12T19:48:50.225Z,15.98
2022-10-12T19:51:18.247Z,19.15
2022-10-12T19:53:45.244Z,14.90
2022-10-12T19:56:14.765Z,22.35
2022-10-12T19:58:43.953Z,18.17
2022-10-12T20:05:05.873Z,15.93
2022-10-12T20:07:32.762Z,16.98
2022-10-12T20:09:59.728Z,21.13
2022-10-12T20:12:26.601Z,20.10
2022-10-12T20:14:53.607Z,16.33
2022-10-12T20:17:20.513Z,17.02
2022-10-12T20:19:49.347Z,16.08
2022-10-12T20:22:19.760Z,15.48
2022-10-12T20:24:46.855Z,18.83
2022-10-12T20:27:13.779Z,16.00
2022-10-12T20:29:41.531Z,15.35
2022-10-12T20:32:08.472Z,21.40
2022-10-12T20:34:35.415Z,17.50
2022-10-12T20:37:02.369Z,17.42
2022-10-12T20:39:29.236Z,16.95
2022-10-12T20:41:56.350Z,21.50
2022-10-12T20:44:23.269Z,17.27
2022-10-12T20:46:50.474Z,16.67
2022-10-12T20:49:17.432Z,22.48
2022-10-12T20:51:44.921Z,16.38
2022-10-12T20:54:18.676Z,22.02
2022-10-12T20:56:49.433Z,16.63
2022-10-12T20:59:16.338Z,16.45
2022-10-12T21:01:43.252Z,17.63
2022-10-12T21:04:12.856Z,17.13
2022-10-12T21:06:41.685Z,22.20
2022-10-12T21:09:12.435Z,18.65
2022-10-12T21:11:39.652Z,22.02
2022-10-12T21:14:06.693Z,21.45
2022-10-12T21:16:33.644Z,22.02
2022-10-12T21:19:00.489Z,18.52
2022-10-12T21:21:27.401Z,21.17
2022-10-12T21:24:02.807Z,20.60
2022-10-12T21:26:31.066Z,17.75
2022-10-12T21:29:01.254Z,17.88
2022-10-12T21:31:32.385Z,16.48
2022-10-12T21:34:01.767Z,20.80
2022-10-12T21:36:30.066Z,18.05
2022-10-12T21:38:57.652Z,20.65
2022-10-12T21:41:27.013Z,19.40
2022-10-12T21:43:54.640Z,18.52
2022-10-12T21:46:24.384Z,14.77
2022-10-12T21:48:52.075Z,19.08
2022-10-12T21:51:20.837Z,18.25
2022-10-12T21:53:47.836Z,16.35
2022-10-12T21:56:29.994Z,14.18
2022-10-12T21:58:58.931Z,18.20
2022-10-12T22:01:38.274Z,18.08
2022-10-12T22:04:07.860Z,14.73
2022-10-12T22:06:35.249Z,17.60
2022-10-12T22:09:08.398Z,14.10
2022-10-12T22:11:37.026Z,17.23
2022-10-12T22:14:11.409Z,18.08
2022-10-12T22:16:38.731Z,17.20
2022-10-12T22:19:08.666Z,18.83
2022-10-12T22:21:36.905Z,16.33
2022-10-12T22:24:04.169Z,17.13
2022-10-12T22:26:31.475Z,15.52
2022-10-12T22:29:00.440Z,18.05
2022-10-12T22:31:27.797Z,22.20
2022-10-12T22:33:55.816Z,15.65
2022-10-12T22:36:23.010Z,17.00
2022-10-12T22:38:49.981Z,17.33
2022-10-12T22:41:21.705Z,17.60
2022-10-12T22:43:51.055Z,23.38
2022-10-12T22:46:19.208Z,21.45
2022-10-12T22:48:47.124Z,21.75
2022-10-12T22:51:33.256Z,18.60
2022-10-12T22:54:01.417Z,21.27
2022-10-12T22:56:29.293Z,20.42
2022-10-12T22:58:58.649Z,20.23
2022-10-12T23:01:26.114Z,19.30
2022-10-12T23:03:54.459Z,15.85
2022-10-12T23:06:22.039Z,18.75
2022-10-12T23:08:49.034Z,15.95
2022-10-12T23:11:22.866Z,14.43
2022-10-12T23:13:50.093Z,17.35
2022-10-12T23:16:24.491Z,20.20
2022-10-12T23:21:27.585Z,18.23
2022-10-12T23:23:54.552Z,16.20
2022-10-12T23:26:24.395Z,16.95
2022-10-12T23:28:52.033Z,17.90
2022-10-12T23:31:24.444Z,21.27
2022-10-12T23:33:56.564Z,20.83
2022-10-12T23:36:23.769Z,15.98
2022-10-12T23:38:50.854Z,15.95
2022-10-12T23:41:17.895Z,20.05
2022-10-12T23:43:44.926Z,17.20
2022-10-12T23:46:12.718Z,15.60
2022-10-12T23:48:39.768Z,16.40
2022-10-12T23:51:11.120Z,15.75
2022-10-12T23:53:38.724Z,16.95
2022-10-12T23:56:06.749Z,15.20
2022-10-12T23:58:34.197Z,16.27
